Time;durP1;ratioP1;P1;durP2;ratioP2;P2;SDS_P1;SDS_P2;PMS_P1;PMS_P2;Temp;Humidity;BMP_temperature;BMP_pressure;BME280_temperature;BME280_humidity;BME280_pressure;Samples;Min_cycle;Max_cycle;Signal;HPM_P1;HPM_P2
2022/10/21 00:01:10;;;;;;;18.65;7.50;;;12.60;99.90;;;;;;5055258;28;20032;-89
2022/10/21 00:03:39;;;;;;;16.90;6.65;;;12.50;99.90;;;;;;5052922;28;20021;-88
2022/10/21 00:06:05;;;;;;;10.48;7.45;;;12.60;99.90;;;;;;5049714;28;20064;-90
2022/10/21 00:08:31;;;;;;;8.95;5.90;;;12.70;99.90;;;;;;5050153;28;20067;-87
2022/10/21 00:10:59;;;;;;;11.57;5.85;;;12.60;99.90;;;;;;5055320;28;20021;-89
2022/10/21 00:13:27;;;;;;;8.18;5.93;;;12.60;99.90;;;;;;5055924;28;20048;-90
2022/10/21 00:16:10;;;;;;;11.23;6.75;;;12.60;99.90;;;;;;5055326;28;20366;-89
2022/10/21 00:18:41;;;;;;;12.18;6.47;;;12.80;99.90;;;;;;5052377;28;20025;-90
2022/10/21 00:21:18;;;;;;;12.85;7.28;;;12.70;99.90;;;;;;5053766;28;20032;-90
2022/10/21 00:23:44;;;;;;;11.82;6.38;;;12.70;99.90;;;;;;5053709;28;20478;-91
2022/10/21 00:26:12;;;;;;;16.52;6.75;;;12.80;99.90;;;;;;5054533;28;20032;-89
2022/10/21 00:28:41;;;;;;;12.27;6.22;;;12.80;99.90;;;;;;5066333;28;20097;-87
2022/10/21 00:31:12;;;;;;;8.20;5.78;;;12.80;99.90;;;;;;5046801;28;20033;-90
2022/10/21 00:33:41;;;;;;;13.98;7.05;;;12.70;99.90;;;;;;5064888;28;20060;-89
2022/10/21 00:36:13;;;;;;;11.80;6.15;;;12.80;99.90;;;;;;5060786;28;20028;-89
2022/10/21 00:38:44;;;;;;;11.25;6.15;;;12.80;99.90;;;;;;5054701;28;20055;-89
2022/10/21 00:41:10;;;;;;;11.90;6.68;;;12.80;99.90;;;;;;5057306;28;20069;-89
2022/10/21 00:44:01;;;;;;;8.63;6.00;;;12.80;99.90;;;;;;5056186;28;20366;-89
2022/10/21 00:46:39;;;;;;;9.82;6.35;;;12.80;99.90;;;;;;5062331;28;20037;-89
2022/10/21 00:49:31;;;;;;;16.83;6.75;;;12.80;99.90;;;;;;5064263;28;20032;-89
2022/10/21 00:52:00;;;;;;;8.75;5.60;;;12.80;99.90;;;;;;5063584;28;20036;-90
2022/10/21 00:54:28;;;;;;;8.43;6.03;;;12.80;99.90;;;;;;5055684;28;20107;-88
2022/10/21 00:56:56;;;;;;;8.05;5.78;;;12.80;99.90;;;;;;5054711;28;20029;-88
2022/10/21 00:59:26;;;;;;;14.93;6.20;;;12.70;99.90;;;;;;5053805;28;20272;-90
2022/10/21 01:01:52;;;;;;;12.77;5.53;;;12.70;99.90;;;;;;5058061;28;20056;-89
2022/10/21 01:04:18;;;;;;;17.92;7.32;;;12.70;99.90;;;;;;5056899;28;20037;-88
2022/10/21 01:06:47;;;;;;;9.95;7.63;;;12.70;99.90;;;;;;5063801;28;20033;-90
2022/10/21 01:09:13;;;;;;;13.63;5.93;;;12.80;99.90;;;;;;5057884;28;20115;-90
2022/10/21 01:11:42;;;;;;;11.18;7.63;;;12.80;99.90;;;;;;5050536;28;20033;-89
2022/10/21 01:14:47;;;;;;;10.90;7.15;;;12.70;99.90;;;;;;5035592;28;20119;-90
2022/10/21 01:17:39;;;;;;;9.27;6.43;;;12.70;99.90;;;;;;4942492;28;20035;-88
2022/10/21 01:20:46;;;;;;;16.73;7.30;;;12.70;99.90;;;;;;4948121;28;20038;-88
2022/10/21 01:23:30;;;;;;;12.90;7.00;;;12.80;99.90;;;;;;5031161;28;20500;-89
2022/10/21 01:26:29;;;;;;;8.15;6.13;;;12.80;99.90;;;;;;5052566;28;20078;-88
2022/10/21 01:29:06;;;;;;;17.55;6.10;;;12.80;99.90;;;;;;5046439;28;20041;-90
2022/10/21 01:31:43;;;;;;;11.35;6.50;;;12.80;99.90;;;;;;5056864;28;20062;-88
2022/10/21 01:34:22;;;;;;;15.90;6.57;;;12.80;99.90;;;;;;5053218;28;20033;-88
2022/10/21 01:37:07;;;;;;;11.98;5.97;;;12.80;99.90;;;;;;5060263;28;20024;-90
2022/10/21 01:40:02;;;;;;;6.72;4.93;;;12.80;99.90;;;;;;5066774;28;20072;-89
2022/10/21 01:42:43;;;;;;;8.20;5.85;;;12.80;99.90;;;;;;5052175;28;20552;-89
2022/10/21 01:45:23;;;;;;;7.38;5.45;;;12.70;99.90;;;;;;5058775;28;20111;-90
2022/10/21 01:48:08;;;;;;;12.25;6.22;;;12.60;99.90;;;;;;5048973;28;20477;-88
2022/10/21 01:50:40;;;;;;;10.80;5.70;;;12.60;99.90;;;;;;5041743;28;20501;-89
2022/10/21 01:53:08;;;;;;;9.30;6.95;;;12.60;99.90;;;;;;5052223;28;20079;-88
2022/10/21 01:55:42;;;;;;;7.15;5.78;;;12.60;99.90;;;;;;5059607;28;20037;-90
2022/10/21 01:58:18;;;;;;;9.82;5.78;;;12.50;99.90;;;;;;5054933;28;20029;-90
2022/10/21 02:00:46;;;;;;;7.53;5.45;;;12.60;99.90;;;;;;5049538;28;20040;-90
2022/10/21 02:03:23;;;;;;;8.77;5.45;;;12.60;99.90;;;;;;5057031;28;20033;-89
2022/10/21 02:05:48;;;;;;;10.48;5.28;;;12.60;99.90;;;;;;5058984;28;20064;-90
2022/10/21 02:08:14;;;;;;;8.35;6.28;;;12.50;99.90;;;;;;5056275;28;20122;-89
2022/10/21 02:10:48;;;;;;;11.30;5.75;;;12.50;99.90;;;;;;5054567;28;20025;-90
2022/10/21 02:13:19;;;;;;;10.27;5.68;;;12.40;99.90;;;;;;5061847;28;20028;-88
2022/10/21 02:15:45;;;;;;;12.65;6.32;;;12.40;99.90;;;;;;5054550;28;20044;-86
2022/10/21 02:18:21;;;;;;;11.93;6.20;;;12.40;99.90;;;;;;5055992;28;20107;-89
2022/10/21 02:20:50;;;;;;;11.90;5.32;;;12.30;99.90;;;;;;5056645;28;20033;-88
2022/10/21 02:23:19;;;;;;;11.43;5.93;;;12.30;99.90;;;;;;5049094;28;20036;-89
2022/10/21 02:25:48;;;;;;;8.30;5.10;;;12.40;99.90;;;;;;5050668;28;20043;-89
2022/10/21 02:28:14;;;;;;;9.35;5.65;;;12.30;99.90;;;;;;5056030;28;20478;-90
2022/10/21 02:31:01;;;;;;;9.18;6.15;;;12.30;99.90;;;;;;5063423;28;20520;-90
2022/10/21 02:33:49;;;;;;;17.90;6.30;;;12.30;99.90;;;;;;5057421;28;20024;-90
2022/10/21 02:36:40;;;;;;;16.08;5.90;;;12.30;99.90;;;;;;5045775;28;20035;-88
2022/10/21 02:39:22;;;;;;;12.75;5.82;;;12.20;99.90;;;;;;5049905;28;20045;-89
2022/10/21 02:41:49;;;;;;;10.43;6.72;;;12.30;99.90;;;;;;5033563;28;20547;-91
2022/10/21 02:44:15;;;;;;;8.48;6.18;;;12.20;99.90;;;;;;5050744;28;20393;-89
2022/10/21 02:46:43;;;;;;;9.73;6.40;;;12.20;99.90;;;;;;5053417;28;20029;-89
2022/10/21 02:49:12;;;;;;;13.32;7.25;;;12.20;99.90;;;;;;5052481;28;20087;-89
2022/10/21 02:51:39;;;;;;;11.27;6.53;;;12.20;99.90;;;;;;5045559;28;20036;-90
2022/10/21 02:54:05;;;;;;;10.25;7.15;;;12.20;99.90;;;;;;5044287;28;20025;-90
2022/10/21 02:56:31;;;;;;;12.52;7.75;;;12.30;99.90;;;;;;5043894;28;20033;-87
2022/10/21 02:58:56;;;;;;;13.45;7.53;;;12.30;99.90;;;;;;5049093;28;20033;-90
2022/10/21 03:01:22;;;;;;;22.98;9.38;;;12.40;99.90;;;;;;5050556;28;20032;-89
2022/10/21 03:03:48;;;;;;;17.90;8.80;;;12.50;99.90;;;;;;5046569;28;20345;-89
2022/10/21 03:06:13;;;;;;;22.88;9.27;;;12.70;99.90;;;;;;5052287;28;20012;-89
2022/10/21 03:08:39;;;;;;;13.43;9.10;;;12.90;99.90;;;;;;5055548;28;20033;-88
2022/10/21 03:11:05;;;;;;;18.25;7.85;;;13.10;99.90;;;;;;5052319;28;20062;-90
2022/10/21 03:13:30;;;;;;;12.35;7.63;;;13.20;99.90;;;;;;5052108;28;20474;-89
2022/10/21 03:15:56;;;;;;;14.30;8.13;;;13.30;99.90;;;;;;5050960;28;20036;-91
2022/10/21 03:18:22;;;;;;;19.00;8.13;;;13.40;99.90;;;;;;5055822;28;20032;-89
2022/10/21 03:20:49;;;;;;;22.02;8.35;;;13.40;99.90;;;;;;5043357;28;20037;-90
2022/10/21 03:23:16;;;;;;;20.77;7.75;;;13.40;99.90;;;;;;5044277;28;20021;-91
2022/10/21 03:26:31;;;;;;;16.30;7.40;;;13.50;99.90;;;;;;5043378;28;20025;-90
2022/10/21 03:28:56;;;;;;;14.50;6.88;;;13.50;99.90;;;;;;5009133;28;20053;-90
2022/10/21 03:31:46;;;;;;;16.85;6.47;;;13.50;99.90;;;;;;5043533;28;20017;-85
2022/10/21 03:34:58;;;;;;;12.05;7.75;;;13.40;99.90;;;;;;5034041;28;20049;-89
2022/10/21 03:37:51;;;;;;;10.45;6.32;;;13.30;99.90;;;;;;5048951;28;20033;-88
2022/10/21 03:41:01;;;;;;;16.10;7.20;;;13.30;99.90;;;;;;5010127;28;20038;-86
2022/10/21 03:47:14;;;;;;;16.90;6.22;;;13.20;99.90;;;;;;5002174;28;20057;-89
2022/10/21 03:49:39;;;;;;;13.23;6.68;;;13.20;99.90;;;;;;5011932;28;20033;-89
2022/10/21 03:52:05;;;;;;;17.23;7.25;;;13.20;99.90;;;;;;5017430;28;20044;-91
2022/10/21 03:54:51;;;;;;;10.85;5.93;;;13.20;99.90;;;;;;4995424;28;20485;-91
2022/10/21 04:00:52;;;;;;;;;;;;;;;;;;;;;
2022/10/21 04:04:08;;;;;;;13.30;7.13;;;13.20;99.90;;;;;;5009066;28;20036;-89
2022/10/21 04:08:08;;;;;;;;;;;13.20;99.90;;;;;;4924134;28;20409;-89
2022/10/21 04:10:09;;;;;;;11.20;6.57;;;13.10;99.90;;;;;;4962336;28;20542;-90
2022/10/21 04:13:13;;;;;;;15.77;6.72;;;13.10;99.90;;;;;;5014190;28;20557;-90
2022/10/21 04:15:45;;;;;;;13.93;6.68;;;13.10;99.90;;;;;;5011834;28;20030;-89
2022/10/21 04:18:11;;;;;;;10.30;6.60;;;13.10;99.90;;;;;;5014774;28;20022;-92
2022/10/21 04:20:46;;;;;;;9.95;6.57;;;13.10;99.90;;;;;;5008353;28;20057;-90
2022/10/21 04:23:25;;;;;;;22.33;7.10;;;13.10;99.90;;;;;;5019217;28;20049;-89
2022/10/21 04:25:50;;;;;;;14.88;7.18;;;13.10;99.90;;;;;;5003316;28;20064;-88
2022/10/21 04:28:16;;;;;;;11.80;6.22;;;13.30;99.90;;;;;;5017578;28;20424;-87
2022/10/21 04:30:48;;;;;;;14.13;6.18;;;13.30;99.90;;;;;;5018853;28;20036;-88
2022/10/21 04:33:14;;;;;;;9.27;5.50;;;13.30;99.90;;;;;;5020157;28;20049;-91
2022/10/21 04:35:42;;;;;;;12.48;5.00;;;13.40;99.90;;;;;;5016943;28;20053;-91
2022/10/21 04:38:08;;;;;;;11.95;5.90;;;13.40;99.90;;;;;;5018484;28;20374;-90
2022/10/21 04:40:33;;;;;;;13.18;5.72;;;13.40;99.90;;;;;;5030183;28;20099;-88
2022/10/21 04:42:59;;;;;;;16.15;6.20;;;13.50;99.90;;;;;;5035225;28;20056;-90
2022/10/21 04:45:25;;;;;;;12.73;5.40;;;13.50;99.90;;;;;;5038103;28;20029;-92
2022/10/21 04:47:50;;;;;;;12.57;5.60;;;13.50;99.90;;;;;;5034417;28;20037;-90
2022/10/21 04:50:16;;;;;;;10.10;5.10;;;13.50;99.90;;;;;;5036722;28;20525;-89
2022/10/21 04:52:41;;;;;;;10.63;5.10;;;13.50;99.90;;;;;;5039119;28;20053;-89
2022/10/21 04:55:07;;;;;;;11.18;4.70;;;13.50;99.90;;;;;;5039883;28;20025;-92
2022/10/21 04:57:33;;;;;;;11.32;5.22;;;13.50;99.90;;;;;;5036476;28;20391;-89
2022/10/21 04:59:59;;;;;;;9.75;5.45;;;13.40;99.90;;;;;;5036784;28;20041;-91
2022/10/21 05:02:24;;;;;;;13.20;5.38;;;13.50;99.90;;;;;;5036189;28;20022;-91
2022/10/21 05:04:50;;;;;;;17.73;5.97;;;13.40;99.90;;;;;;5033772;28;20535;-94
2022/10/21 05:07:16;;;;;;;15.75;5.50;;;13.40;99.90;;;;;;5033408;28;20087;-94
2022/10/21 05:09:50;;;;;;;12.20;5.57;;;13.40;99.90;;;;;;5029767;28;20078;-92
2022/10/21 05:12:16;;;;;;;10.40;5.53;;;13.50;99.90;;;;;;5027509;28;20095;-87
2022/10/21 05:14:42;;;;;;;14.05;5.50;;;13.50;99.90;;;;;;5035850;28;20026;-91
2022/10/21 05:17:07;;;;;;;11.82;5.55;;;13.60;99.90;;;;;;5027014;28;20034;-91
2022/10/21 05:19:33;;;;;;;14.25;5.60;;;13.60;99.90;;;;;;5041816;28;20033;-88
2022/10/21 05:21:58;;;;;;;6.25;4.70;;;13.60;99.90;;;;;;5032044;28;20033;-93
2022/10/21 05:24:24;;;;;;;8.85;5.22;;;13.50;99.90;;;;;;5033779;28;20040;-94
2022/10/21 05:26:56;;;;;;;24.55;5.70;;;13.50;99.90;;;;;;5044721;28;20052;-92
2022/10/21 05:29:22;;;;;;;17.98;5.88;;;13.40;99.90;;;;;;5034479;28;20604;-90
2022/10/21 05:31:50;;;;;;;7.63;4.63;;;13.50;99.90;;;;;;5036040;28;20124;-87
2022/10/21 05:34:16;;;;;;;8.60;5.53;;;13.50;99.90;;;;;;5034284;28;20635;-87
2022/10/21 05:36:47;;;;;;;17.40;5.80;;;13.50;99.90;;;;;;5031969;28;20112;-90
2022/10/21 05:39:13;;;;;;;13.40;6.38;;;13.50;99.90;;;;;;5033304;28;20056;-92
2022/10/21 05:41:38;;;;;;;19.38;6.90;;;13.50;99.90;;;;;;5035235;28;20029;-91
2022/10/21 05:44:04;;;;;;;13.55;5.93;;;13.70;99.90;;;;;;5034522;28;20511;-92
2022/10/21 05:46:30;;;;;;;10.40;6.50;;;13.80;99.90;;;;;;5035535;28;20112;-90
2022/10/21 05:48:55;;;;;;;13.23;5.32;;;13.80;99.90;;;;;;5037254;28;20029;-91
2022/10/21 05:51:25;;;;;;;11.90;5.80;;;13.90;99.90;;;;;;5037907;28;20060;-91
2022/10/21 05:53:52;;;;;;;13.93;5.57;;;13.90;99.90;;;;;;5038396;28;20385;-94
2022/10/21 05:56:18;;;;;;;12.07;6.43;;;13.90;99.90;;;;;;5032036;28;20037;-92
2022/10/21 05:58:46;;;;;;;13.98;7.50;;;14.00;99.90;;;;;;5030381;28;20395;-93
2022/10/21 06:01:12;;;;;;;15.73;6.13;;;14.10;99.90;;;;;;5038283;28;20028;-91
2022/10/21 06:03:38;;;;;;;17.83;6.60;;;14.10;99.90;;;;;;5032835;28;20104;-93
2022/10/21 06:06:06;;;;;;;16.20;6.43;;;14.10;99.90;;;;;;5034486;28;20175;-91
2022/10/21 06:08:34;;;;;;;9.93;6.47;;;14.10;99.90;;;;;;5031150;28;20036;-89
2022/10/21 06:11:05;;;;;;;15.93;6.78;;;14.10;99.90;;;;;;5036397;28;20037;-87
2022/10/21 06:13:31;;;;;;;16.08;6.43;;;14.20;99.90;;;;;;5030669;28;20021;-90
2022/10/21 06:15:58;;;;;;;21.05;6.70;;;14.20;99.90;;;;;;5038549;28;20017;-90
2022/10/21 06:18:24;;;;;;;11.98;5.72;;;14.20;99.90;;;;;;5028672;28;20040;-90
2022/10/21 06:20:52;;;;;;;14.38;6.50;;;14.20;99.90;;;;;;5032973;28;20037;-91
2022/10/21 06:23:17;;;;;;;21.13;6.95;;;14.10;99.90;;;;;;5028867;28;20489;-90
2022/10/21 06:26:09;;;;;;;12.13;6.30;;;14.10;99.90;;;;;;5032591;28;20048;-92
2022/10/21 06:28:36;;;;;;;8.80;6.05;;;14.10;99.90;;;;;;5030393;28;20598;-93
2022/10/21 06:31:07;;;;;;;12.50;5.72;;;14.10;99.90;;;;;;5030028;28;20060;-90
2022/10/21 06:33:33;;;;;;;14.27;6.57;;;14.20;99.90;;;;;;5037584;28;20124;-90
2022/10/21 06:35:59;;;;;;;13.07;5.75;;;14.10;99.90;;;;;;5041889;28;20514;-90
2022/10/21 06:38:25;;;;;;;18.20;6.38;;;14.10;99.90;;;;;;5034110;28;20083;-90
2022/10/21 06:40:51;;;;;;;12.30;5.70;;;14.20;99.90;;;;;;5002343;28;20088;-90
2022/10/21 06:43:17;;;;;;;13.70;5.88;;;14.20;99.90;;;;;;5022449;28;20046;-87
2022/10/21 06:45:44;;;;;;;16.50;5.60;;;14.20;99.90;;;;;;5022110;28;20486;-91
2022/10/21 06:48:10;;;;;;;20.83;6.68;;;14.20;99.90;;;;;;5011579;28;20033;-88
2022/10/21 06:50:39;;;;;;;19.13;6.88;;;14.30;99.90;;;;;;5019201;28;20061;-90
2022/10/21 06:53:04;;;;;;;15.77;7.22;;;14.30;99.90;;;;;;5024103;28;20152;-93
2022/10/21 06:55:31;;;;;;;8.43;4.80;;;14.30;99.90;;;;;;5012666;28;20480;-89
2022/10/21 06:57:58;;;;;;;18.63;5.55;;;14.30;99.90;;;;;;5002012;28;20371;-93
2022/10/21 07:00:23;;;;;;;11.90;6.90;;;14.40;99.90;;;;;;5010432;28;20381;-90
2022/10/21 07:02:55;;;;;;;12.77;5.05;;;14.40;99.90;;;;;;5016104;28;20029;-89
2022/10/21 07:05:20;;;;;;;10.43;4.47;;;14.50;99.90;;;;;;5022230;28;20041;-89
2022/10/21 07:07:52;;;;;;;11.25;4.38;;;14.50;99.90;;;;;;5015795;28;20030;-90
2022/10/21 07:10:17;;;;;;;20.45;4.78;;;14.60;99.90;;;;;;5018213;28;20041;-87
2022/10/21 07:12:45;;;;;;;13.13;4.60;;;14.70;99.90;;;;;;5021431;28;20489;-89
2022/10/21 07:15:20;;;;;;;12.32;4.53;;;14.70;99.90;;;;;;5017223;28;20033;-91
2022/10/21 07:17:45;;;;;;;11.43;4.43;;;14.80;99.90;;;;;;5016218;28;20079;-88
2022/10/21 07:20:11;;;;;;;32.03;7.97;;;15.00;99.90;;;;;;5020325;28;20033;-91
2022/10/21 07:22:37;;;;;;;12.32;4.38;;;15.20;99.90;;;;;;5017965;28;20120;-89
2022/10/21 07:25:02;;;;;;;18.00;5.15;;;15.30;99.90;;;;;;5025482;28;20037;-94
2022/10/21 07:27:28;;;;;;;10.85;4.43;;;15.30;99.90;;;;;;5013956;28;20120;-92
2022/10/21 07:29:57;;;;;;;10.13;5.28;;;15.40;99.90;;;;;;5021511;28;20095;-94
2022/10/21 07:32:22;;;;;;;14.20;4.07;;;15.40;99.90;;;;;;5019247;28;20505;-92
2022/10/21 07:34:48;;;;;;;13.35;3.70;;;15.40;99.90;;;;;;5013824;28;20057;-90
2022/10/21 07:37:14;;;;;;;9.27;4.43;;;15.50;99.90;;;;;;5019353;28;20038;-94
2022/10/21 07:39:39;;;;;;;16.70;4.20;;;15.50;99.90;;;;;;5048909;28;20049;-93
2022/10/21 07:42:05;;;;;;;19.65;3.35;;;15.60;99.90;;;;;;5058644;28;20029;-92
2022/10/21 07:44:31;;;;;;;15.10;4.43;;;15.60;99.90;;;;;;5055027;28;20017;-93
2022/10/21 07:46:56;;;;;;;16.23;4.78;;;15.60;99.90;;;;;;5052596;28;20052;-92
2022/10/21 07:49:23;;;;;;;9.93;4.35;;;15.70;99.90;;;;;;5056367;28;20040;-90
2022/10/21 07:51:52;;;;;;;19.20;4.07;;;15.80;99.90;;;;;;5053031;28;20021;-90
2022/10/21 07:54:20;;;;;;;12.35;4.63;;;15.80;99.90;;;;;;5051892;28;20029;-91
2022/10/21 07:56:48;;;;;;;11.25;4.13;;;15.80;99.90;;;;;;5053006;28;20033;-89
2022/10/21 07:59:15;;;;;;;14.93;5.32;;;15.80;99.90;;;;;;5059308;28;20036;-93
2022/10/21 08:01:46;;;;;;;12.90;4.50;;;15.90;99.90;;;;;;5052771;28;20036;-94
2022/10/21 08:04:15;;;;;;;15.02;4.78;;;15.80;99.90;;;;;;5066072;28;20028;-91
2022/10/21 08:06:41;;;;;;;16.38;5.55;;;15.90;99.90;;;;;;5051271;28;20515;-93
2022/10/21 08:09:07;;;;;;;10.15;4.32;;;16.00;99.90;;;;;;5057171;28;20068;-92
2022/10/21 08:11:33;;;;;;;11.45;5.03;;;16.00;99.90;;;;;;5052503;28;20025;-89
2022/10/21 08:13:59;;;;;;;9.77;4.93;;;16.00;99.90;;;;;;5064458;28;20060;-92
2022/10/21 08:16:26;;;;;;;19.30;4.85;;;16.00;99.90;;;;;;5056285;28;20053;-91
2022/10/21 08:18:52;;;;;;;22.20;4.85;;;16.00;99.90;;;;;;5048480;28;20497;-90
2022/10/21 08:21:18;;;;;;;9.48;5.00;;;16.00;99.90;;;;;;5056125;28;20538;-91
2022/10/21 08:23:44;;;;;;;12.45;5.15;;;16.10;99.90;;;;;;5051601;28;20025;-90
2022/10/21 08:26:13;;;;;;;18.08;5.97;;;16.10;99.90;;;;;;5062180;28;20076;-92
2022/10/21 08:28:39;;;;;;;14.40;5.72;;;16.20;99.90;;;;;;5050566;28;20051;-91
2022/10/21 08:31:10;;;;;;;15.27;5.35;;;16.20;99.90;;;;;;5059568;28;20029;-93
2022/10/21 08:33:36;;;;;;;15.68;5.22;;;16.10;99.90;;;;;;5061732;28;20036;-92
2022/10/21 08:36:06;;;;;;;15.38;5.22;;;16.10;99.90;;;;;;5055686;28;20083;-93
2022/10/21 08:38:32;;;;;;;12.60;5.00;;;16.10;99.90;;;;;;5048526;28;20044;-89
2022/10/21 08:40:59;;;;;;;15.35;5.65;;;16.20;99.90;;;;;;5057525;28;20083;-89
2022/10/21 08:43:33;;;;;;;12.55;5.28;;;16.10;99.90;;;;;;5058005;28;20045;-91
2022/10/21 08:46:23;;;;;;;15.70;5.40;;;16.20;99.90;;;;;;5053300;28;20025;-92
2022/10/21 08:49:22;;;;;;;23.15;6.47;;;16.20;99.90;;;;;;5050645;28;20028;-92
2022/10/21 08:52:03;;;;;;;19.60;5.70;;;16.30;99.90;;;;;;5052506;28;20052;-91
2022/10/21 08:55:10;;;;;;;13.45;6.30;;;16.40;99.90;;;;;;5046791;28;20476;-90
2022/10/21 08:57:36;;;;;;;19.20;6.28;;;16.30;99.90;;;;;;5046725;28;20084;-92
2022/10/21 09:00:34;;;;;;;17.25;5.55;;;16.30;99.90;;;;;;5051726;28;20547;-92
2022/10/21 09:03:12;;;;;;;13.02;5.78;;;16.20;99.90;;;;;;5056015;28;20166;-87
2022/10/21 09:06:06;;;;;;;18.05;6.63;;;16.20;99.90;;;;;;5048248;28;20028;-90
2022/10/21 09:08:38;;;;;;;12.38;5.63;;;16.10;99.90;;;;;;5057563;28;20111;-90
2022/10/21 09:11:30;;;;;;;24.75;6.22;;;16.10;99.90;;;;;;5053519;28;20125;-92
2022/10/21 09:14:08;;;;;;;20.00;5.93;;;16.10;99.90;;;;;;5057849;28;20037;-92
2022/10/21 09:17:11;;;;;;;16.00;5.65;;;16.10;99.90;;;;;;5045673;28;20026;-91
2022/10/21 09:19:42;;;;;;;18.55;7.05;;;16.10;99.90;;;;;;5050491;28;20074;-87
2022/10/21 09:22:20;;;;;;;12.60;4.97;;;16.10;99.90;;;;;;5043754;28;20040;-90
2022/10/21 09:25:08;;;;;;;18.00;6.35;;;16.10;99.90;;;;;;5051669;28;20032;-89
2022/10/21 09:27:33;;;;;;;19.95;5.75;;;16.10;99.90;;;;;;5044573;28;20030;-93
2022/10/21 09:30:06;;;;;;;18.98;6.25;;;16.00;99.90;;;;;;5061354;28;20055;-90
2022/10/21 09:32:36;;;;;;;19.52;6.40;;;16.00;99.90;;;;;;5055191;28;20039;-92
2022/10/21 09:35:25;;;;;;;20.05;6.03;;;16.00;99.90;;;;;;5060020;28;20047;-90
2022/10/21 09:38:07;;;;;;;16.70;6.05;;;16.00;99.90;;;;;;5034277;28;20041;-93
2022/10/21 09:40:32;;;;;;;22.60;6.50;;;16.00;99.90;;;;;;5013811;28;20084;-94
2022/10/21 09:43:00;;;;;;;18.65;6.22;;;15.90;99.90;;;;;;5007848;28;20487;-90
2022/10/21 09:45:35;;;;;;;17.10;5.63;;;15.90;99.90;;;;;;5017026;28;20030;-95
2022/10/21 09:48:04;;;;;;;25.55;5.80;;;15.80;99.90;;;;;;5012777;28;20025;-91
2022/10/21 09:50:31;;;;;;;18.00;5.60;;;15.80;99.90;;;;;;5013780;28;20108;-91
2022/10/21 09:53:17;;;;;;;15.85;5.75;;;15.90;99.90;;;;;;5019307;28;20033;-93
2022/10/21 09:55:50;;;;;;;15.57;4.68;;;15.90;99.90;;;;;;5007502;28;20026;-91
2022/10/21 09:58:25;;;;;;;11.15;5.10;;;15.90;99.90;;;;;;5012854;28;20038;-91
2022/10/21 10:00:51;;;;;;;19.27;5.43;;;15.90;99.90;;;;;;5022157;28;20482;-93
2022/10/21 10:03:40;;;;;;;14.45;4.75;;;15.90;99.90;;;;;;5020356;28;20269;-90
2022/10/21 10:06:09;;;;;;;10.95;4.93;;;15.90;99.90;;;;;;5022350;28;20112;-92
2022/10/21 10:08:43;;;;;;;8.27;4.82;;;15.90;99.90;;;;;;5019002;28;20311;-89
2022/10/21 10:11:09;;;;;;;20.80;6.18;;;16.00;99.90;;;;;;5016937;28;20061;-93
2022/10/21 10:13:43;;;;;;;12.25;5.55;;;16.00;99.90;;;;;;5015738;28;20075;-91
2022/10/21 10:16:26;;;;;;;9.68;4.78;;;16.00;99.90;;;;;;5016315;28;20050;-91
2022/10/21 10:19:13;;;;;;;10.60;4.63;;;15.90;99.90;;;;;;5006626;28;20077;-89
2022/10/21 10:21:38;;;;;;;9.15;4.28;;;16.00;99.90;;;;;;5010441;28;20597;-93
2022/10/21 10:24:04;;;;;;;13.63;4.65;;;15.90;99.90;;;;;;5016446;28;20032;-91
2022/10/21 10:26:37;;;;;;;15.95;4.75;;;15.90;99.90;;;;;;5012830;28;20073;-88
2022/10/21 10:29:26;;;;;;;15.23;4.13;;;15.90;99.90;;;;;;5011743;28;20044;-92
2022/10/21 10:32:01;;;;;;;5.78;3.75;;;15.90;99.90;;;;;;5010031;28;20033;-88
2022/10/21 10:34:33;;;;;;;10.07;4.78;;;15.90;99.90;;;;;;5007958;28;20427;-90
2022/10/21 10:37:14;;;;;;;8.77;4.07;;;15.90;99.90;;;;;;5018421;28;20029;-90
2022/10/21 10:39:44;;;;;;;7.80;3.72;;;15.90;99.90;;;;;;5044581;28;20102;-92
2022/10/21 10:42:18;;;;;;;10.68;3.97;;;15.90;99.90;;;;;;5047307;28;20428;-91
2022/10/21 10:44:44;;;;;;;13.50;4.28;;;15.90;99.90;;;;;;5056308;28;20025;-90
2022/10/21 10:47:21;;;;;;;7.18;3.88;;;15.90;99.90;;;;;;5064967;28;20035;-92
2022/10/21 10:49:48;;;;;;;7.88;3.90;;;15.80;99.90;;;;;;5056948;28;20037;-92
2022/10/21 10:52:20;;;;;;;6.55;4.18;;;15.80;99.90;;;;;;5053643;28;20035;-92
2022/10/21 10:54:46;;;;;;;6.93;4.13;;;15.90;99.90;;;;;;5048601;28;20044;-90
2022/10/21 10:57:24;;;;;;;7.88;4.60;;;15.90;99.90;;;;;;5062926;28;20056;-91
2022/10/21 11:00:04;;;;;;;7.60;3.88;;;15.90;99.90;;;;;;5058226;28;20040;-92
2022/10/21 11:02:47;;;;;;;10.82;3.67;;;15.90;99.90;;;;;;5052356;28;20032;-90
2022/10/21 11:05:28;;;;;;;16.13;4.90;;;15.90;99.90;;;;;;5045148;28;20080;-91
2022/10/21 11:08:00;;;;;;;15.27;4.55;;;16.00;99.90;;;;;;5051946;28;20115;-91
2022/10/21 11:10:38;;;;;;;13.43;4.32;;;16.10;99.90;;;;;;5051917;28;20064;-91
2022/10/21 11:13:10;;;;;;;12.40;3.58;;;16.10;99.90;;;;;;5045557;28;20032;-91
2022/10/21 11:16:17;;;;;;;11.18;4.47;;;16.20;99.90;;;;;;5048156;28;20033;-91
2022/10/21 11:19:00;;;;;;;12.23;4.50;;;16.20;99.90;;;;;;5050807;28;20036;-91
2022/10/21 11:21:49;;;;;;;10.77;4.57;;;16.30;99.90;;;;;;5045485;28;20025;-90
2022/10/21 11:24:28;;;;;;;7.85;4.00;;;16.30;99.90;;;;;;5042974;28;20045;-88
2022/10/21 11:27:18;;;;;;;6.25;3.58;;;16.30;99.90;;;;;;5057223;28;20114;-90
2022/10/21 11:29:53;;;;;;;11.73;4.50;;;16.40;99.90;;;;;;5054638;28;20037;-90
2022/10/21 11:32:27;;;;;;;14.13;4.38;;;16.40;99.90;;;;;;5049071;28;20047;-92
2022/10/21 11:35:15;;;;;;;9.30;4.53;;;16.40;99.90;;;;;;5052041;28;20032;-91
2022/10/21 11:38:12;;;;;;;6.93;4.10;;;16.40;99.90;;;;;;5041776;28;20025;-92
2022/10/21 11:40:37;;;;;;;4.57;3.65;;;16.40;99.90;;;;;;5049729;28;20047;-92
2022/10/21 11:43:30;;;;;;;14.50;4.68;;;16.30;99.90;;;;;;5049083;28;20034;-90
2022/10/21 11:46:17;;;;;;;11.40;4.93;;;16.30;99.90;;;;;;5052934;28;20032;-90
2022/10/21 11:49:10;;;;;;;15.63;4.72;;;16.30;99.90;;;;;;5037417;28;20033;-92
2022/10/21 11:51:48;;;;;;;15.93;4.47;;;16.30;99.90;;;;;;5053833;28;20171;-91
2022/10/21 11:54:45;;;;;;;8.32;4.70;;;16.30;99.90;;;;;;5054654;28;20029;-91
2022/10/21 11:57:24;;;;;;;15.82;4.47;;;16.30;99.90;;;;;;5057219;28;20033;-90
2022/10/21 12:00:11;;;;;;;12.70;4.13;;;16.30;99.90;;;;;;5055421;28;20122;-92
2022/10/21 12:03:10;;;;;;;18.67;5.45;;;16.30;99.90;;;;;;5051453;28;20488;-90
2022/10/21 12:06:01;;;;;;;14.85;5.13;;;16.30;99.90;;;;;;5060302;28;20037;-90
2022/10/21 12:08:38;;;;;;;8.65;4.72;;;16.30;99.90;;;;;;5055900;28;20465;-92
2022/10/21 12:11:27;;;;;;;8.68;4.80;;;16.30;99.90;;;;;;5039491;28;20128;-92
2022/10/21 12:14:23;;;;;;;13.50;4.85;;;16.20;99.90;;;;;;5046550;28;20516;-93
2022/10/21 12:16:52;;;;;;;7.05;4.20;;;16.20;99.90;;;;;;5052067;28;20033;-91
2022/10/21 12:19:18;;;;;;;12.55;4.50;;;16.20;99.90;;;;;;5058837;28;20507;-90
2022/10/21 12:21:44;;;;;;;15.38;5.55;;;16.20;99.90;;;;;;5055333;28;20043;-91
2022/10/21 12:24:23;;;;;;;14.90;5.00;;;16.30;99.90;;;;;;5049287;28;20036;-91
2022/10/21 12:27:16;;;;;;;14.77;4.80;;;16.30;99.90;;;;;;5060790;28;20056;-92
2022/10/21 12:30:03;;;;;;;15.25;4.78;;;16.30;99.90;;;;;;5055960;28;20032;-92
2022/10/21 12:32:38;;;;;;;14.65;4.85;;;16.30;99.90;;;;;;5050615;28;20108;-93
2022/10/21 12:35:39;;;;;;;9.93;4.75;;;16.40;99.90;;;;;;5048883;28;20478;-91
2022/10/21 12:38:42;;;;;;;20.25;5.15;;;16.40;99.90;;;;;;5035734;28;20041;-90
2022/10/21 12:41:33;;;;;;;17.05;5.25;;;16.40;99.90;;;;;;5053911;28;20095;-91
2022/10/21 12:44:02;;;;;;;11.73;4.43;;;16.60;99.90;;;;;;5041471;28;20528;-91
2022/10/21 12:46:51;;;;;;;12.70;4.72;;;16.60;99.90;;;;;;5056253;28;20078;-90
2022/10/21 12:49:26;;;;;;;20.30;5.45;;;16.60;99.90;;;;;;5052053;28;20041;-90
2022/10/21 12:51:57;;;;;;;12.73;5.40;;;16.60;99.90;;;;;;5054169;28;20039;-90
2022/10/21 12:54:29;;;;;;;11.40;4.97;;;16.70;99.90;;;;;;5048906;28;20152;-91
2022/10/21 12:57:07;;;;;;;15.63;4.80;;;16.70;99.90;;;;;;5047329;28;20493;-91
2022/10/21 12:59:39;;;;;;;13.98;5.13;;;16.70;99.90;;;;;;5055273;28;20025;-91
2022/10/21 13:02:05;;;;;;;14.75;6.13;;;16.60;99.90;;;;;;5027832;28;20574;-90
2022/10/21 13:04:30;;;;;;;11.20;4.03;;;16.50;99.90;;;;;;5057019;28;20025;-88
2022/10/21 13:07:15;;;;;;;8.38;4.28;;;16.60;99.90;;;;;;5054267;28;20025;-90
2022/10/21 13:09:49;;;;;;;22.70;5.75;;;16.50;99.90;;;;;;5050723;28;20453;-91
2022/10/21 13:12:21;;;;;;;15.52;5.43;;;16.50;99.90;;;;;;5041148;28;20029;-91
2022/10/21 13:14:51;;;;;;;15.35;5.75;;;16.50;99.90;;;;;;5052754;28;20032;-90
2022/10/21 13:17:19;;;;;;;9.70;4.95;;;16.50;99.90;;;;;;5055190;28;20029;-90
2022/10/21 13:19:49;;;;;;;8.88;4.63;;;16.40;99.90;;;;;;5052755;28;20055;-90
2022/10/21 13:22:22;;;;;;;8.93;4.57;;;16.40;99.90;;;;;;5059562;28;20535;-91